createdAt,value
2018-07-31T00:01:24.540Z,29.31
2018-07-31T00:03:53.641Z,29.25
2018-07-31T00:06:24.326Z,29.20
2018-07-31T00:08:55.085Z,29.16
2018-07-31T00:11:24.113Z,29.11
2018-07-31T00:13:53.211Z,29.07
2018-07-31T00:16:22.119Z,29.03
2018-07-31T00:18:50.975Z,29.01
2018-07-31T00:21:19.859Z,28.99
2018-07-31T00:23:48.664Z,28.95
2018-07-31T00:26:17.579Z,28.92
2018-07-31T00:28:46.456Z,28.91
2018-07-31T00:31:15.584Z,28.89
2018-07-31T00:33:44.660Z,28.88
2018-07-31T00:36:13.907Z,28.85
2018-07-31T00:38:43.022Z,28.83
2018-07-31T00:41:11.982Z,28.81
2018-07-31T00:43:40.921Z,28.79
2018-07-31T00:46:10.390Z,28.78
2018-07-31T00:48:39.628Z,28.78
2018-07-31T00:51:08.707Z,28.77
2018-07-31T00:53:37.624Z,28.76
2018-07-31T00:56:06.678Z,28.74
2018-07-31T00:58:35.653Z,28.72
2018-07-31T01:01:04.679Z,28.66
2018-07-31T01:03:33.658Z,28.62
2018-07-31T01:06:02.554Z,28.59
2018-07-31T01:08:31.456Z,28.56
2018-07-31T01:11:00.381Z,28.53
2018-07-31T01:13:29.227Z,28.50
2018-07-31T01:15:58.132Z,28.48
2018-07-31T01:18:27.132Z,28.48
2018-07-31T01:20:56.193Z,28.44
2018-07-31T01:23:25.304Z,28.43
2018-07-31T01:25:54.358Z,28.40
2018-07-31T01:28:23.422Z,28.37
2018-07-31T01:30:52.501Z,28.35
2018-07-31T01:33:21.545Z,28.32
2018-07-31T01:35:50.581Z,28.28
2018-07-31T01:38:19.614Z,28.24
2018-07-31T01:40:49.512Z,28.22
2018-07-31T01:43:19.452Z,28.20
2018-07-31T01:45:48.426Z,28.17
2018-07-31T01:48:17.488Z,28.13
2018-07-31T01:50:46.530Z,28.13
2018-07-31T01:53:15.435Z,28.11
2018-07-31T01:55:44.484Z,28.11
2018-07-31T01:58:13.432Z,28.09
2018-07-31T02:00:43.294Z,28.07
2018-07-31T02:03:12.269Z,28.05
2018-07-31T02:05:41.521Z,28.05
2018-07-31T02:08:10.732Z,28.01
2018-07-31T02:10:40.106Z,27.98
2018-07-31T02:13:09.728Z,27.97
2018-07-31T02:15:39.105Z,27.95
2018-07-31T02:18:08.222Z,27.93
2018-07-31T02:20:37.262Z,27.88
2018-07-31T02:23:06.470Z,27.82
2018-07-31T02:25:36.367Z,27.78
2018-07-31T02:28:05.689Z,27.76
2018-07-31T02:30:34.736Z,27.73
2018-07-31T02:33:03.746Z,27.71
2018-07-31T02:35:32.759Z,27.67
2018-07-31T02:38:01.652Z,27.64
2018-07-31T02:40:30.809Z,27.62
2018-07-31T02:42:59.759Z,27.59
2018-07-31T02:45:28.707Z,27.59
2018-07-31T02:47:57.464Z,27.59
2018-07-31T02:50:26.380Z,27.58
2018-07-31T02:52:55.267Z,27.56
2018-07-31T02:55:24.179Z,27.57
2018-07-31T02:57:53.605Z,27.54
2018-07-31T03:00:22.491Z,27.51
2018-07-31T03:02:51.305Z,27.49
2018-07-31T03:05:20.225Z,27.48
2018-07-31T03:07:49.034Z,27.46
2018-07-31T03:10:17.921Z,27.44
2018-07-31T03:12:46.792Z,27.42
2018-07-31T03:15:15.586Z,27.39
2018-07-31T03:17:44.473Z,27.37
2018-07-31T03:20:13.300Z,27.36
2018-07-31T03:22:42.137Z,27.32
2018-07-31T03:25:11.202Z,27.28
2018-07-31T03:27:40.030Z,27.24
2018-07-31T03:30:08.817Z,27.21
2018-07-31T03:32:37.723Z,27.17
2018-07-31T03:35:06.819Z,27.12
2018-07-31T03:37:35.709Z,27.11
2018-07-31T03:40:04.443Z,27.07
2018-07-31T03:42:33.364Z,27.06
2018-07-31T03:45:02.072Z,27.02
2018-07-31T03:47:30.968Z,27.00
2018-07-31T03:49:59.695Z,26.97
2018-07-31T03:52:28.502Z,26.95
2018-07-31T03:54:57.365Z,26.94
2018-07-31T03:57:26.248Z,26.91
2018-07-31T03:59:55.012Z,26.87
2018-07-31T04:02:24.794Z,26.85
2018-07-31T04:04:54.483Z,26.80
2018-07-31T04:07:23.307Z,26.78
2018-07-31T04:09:52.113Z,26.74
2018-07-31T04:12:20.951Z,26.71
2018-07-31T04:14:49.919Z,26.67
2018-07-31T04:17:18.916Z,26.68
2018-07-31T04:19:47.795Z,26.68
2018-07-31T04:22:16.632Z,26.69
2018-07-31T04:24:45.591Z,26.73
2018-07-31T04:27:20.321Z,26.73
2018-07-31T04:29:49.416Z,26.76
2018-07-31T04:32:18.667Z,26.79
2018-07-31T04:34:47.831Z,26.81
2018-07-31T04:37:16.896Z,26.84
2018-07-31T04:39:46.846Z,26.86
2018-07-31T04:42:16.995Z,26.89
2018-07-31T04:44:46.040Z,26.92
2018-07-31T04:47:15.083Z,26.94
2018-07-31T04:49:44.024Z,26.96
2018-07-31T04:52:13.031Z,26.97
2018-07-31T04:54:42.112Z,27.00
2018-07-31T04:57:11.115Z,27.06
2018-07-31T04:59:40.987Z,27.10
2018-07-31T05:02:10.488Z,27.15
2018-07-31T05:04:39.755Z,27.19
2018-07-31T05:07:08.889Z,27.24
2018-07-31T05:09:37.751Z,27.27
2018-07-31T05:12:07.232Z,27.30
2018-07-31T05:14:36.069Z,27.33
2018-07-31T05:17:05.802Z,27.36
2018-07-31T05:19:34.816Z,27.43
2018-07-31T05:22:03.992Z,27.49
2018-07-31T05:24:33.679Z,27.55
2018-07-31T05:27:02.585Z,27.59
2018-07-31T05:29:31.900Z,27.64
2018-07-31T05:32:01.233Z,27.69
2018-07-31T05:34:31.010Z,27.73
2018-07-31T05:37:00.072Z,27.77
2018-07-31T05:39:29.131Z,27.82
2018-07-31T05:42:00.108Z,27.88
2018-07-31T05:47:21.457Z,28.04
2018-07-31T05:49:50.528Z,28.13
2018-07-31T05:52:19.544Z,28.24
2018-07-31T05:54:51.128Z,28.34
2018-07-31T05:57:20.168Z,28.54
2018-07-31T05:59:49.433Z,28.91
2018-07-31T06:02:18.587Z,29.43
2018-07-31T06:04:47.578Z,30.00
2018-07-31T06:07:16.310Z,30.61
2018-07-31T06:09:45.008Z,31.25
2018-07-31T06:12:13.720Z,31.89
2018-07-31T06:14:42.911Z,32.45
2018-07-31T06:17:12.999Z,33.03
2018-07-31T06:19:42.064Z,33.61
2018-07-31T06:22:10.870Z,34.13
2018-07-31T06:24:39.720Z,34.62
2018-07-31T06:27:08.917Z,35.14
2018-07-31T06:29:37.892Z,35.67
2018-07-31T06:32:06.776Z,36.16
2018-07-31T06:34:35.705Z,36.47
2018-07-31T06:37:04.625Z,36.74
2018-07-31T06:39:33.563Z,36.78
2018-07-31T06:42:02.304Z,36.65
2018-07-31T06:44:31.243Z,36.42
2018-07-31T06:47:00.086Z,36.13
2018-07-31T06:49:28.899Z,35.82
2018-07-31T06:51:57.682Z,35.56
2018-07-31T06:54:26.559Z,35.34
2018-07-31T06:56:55.453Z,35.16
2018-07-31T06:59:24.465Z,34.98
2018-07-31T07:01:53.353Z,34.83
2018-07-31T07:04:22.366Z,34.74
2018-07-31T07:06:51.297Z,34.68
2018-07-31T07:09:20.218Z,34.65
2018-07-31T07:11:48.852Z,34.68
2018-07-31T07:14:17.502Z,34.74
2018-07-31T07:16:46.086Z,34.87
2018-07-31T07:19:14.735Z,35.12
2018-07-31T07:21:43.402Z,35.31
2018-07-31T07:24:12.043Z,35.49
2018-07-31T07:26:40.682Z,35.74
2018-07-31T07:29:09.728Z,36.06
2018-07-31T07:31:38.483Z,36.45
2018-07-31T07:34:07.638Z,36.97
2018-07-31T07:36:36.369Z,37.30
2018-07-31T07:39:09.223Z,37.54
2018-07-31T07:41:37.831Z,37.63
2018-07-31T07:44:06.946Z,37.67
2018-07-31T07:46:35.655Z,37.70
2018-07-31T07:49:04.380Z,37.90
2018-07-31T07:51:33.087Z,38.36
2018-07-31T07:54:01.934Z,38.68
2018-07-31T07:56:30.761Z,38.94
2018-07-31T07:58:59.641Z,39.29
2018-07-31T08:01:28.452Z,39.40
2018-07-31T08:03:57.370Z,39.69
2018-07-31T08:06:26.182Z,40.16
2018-07-31T08:08:55.135Z,40.34
2018-07-31T08:11:24.024Z,40.64
2018-07-31T08:13:53.058Z,41.29
2018-07-31T08:16:21.867Z,42.07
2018-07-31T08:18:50.465Z,42.74
2018-07-31T08:21:19.107Z,43.43
2018-07-31T08:23:47.767Z,44.02
2018-07-31T08:26:18.508Z,44.50
2018-07-31T08:28:47.178Z,44.13
2018-07-31T08:31:15.788Z,44.77
2018-07-31T08:33:44.404Z,44.89
2018-07-31T08:36:12.996Z,45.21
2018-07-31T08:38:41.683Z,45.51
2018-07-31T08:41:10.386Z,45.86
2018-07-31T08:43:39.795Z,46.37
2018-07-31T08:46:08.465Z,46.89
2018-07-31T08:48:37.089Z,46.83
2018-07-31T08:51:05.733Z,46.07
2018-07-31T08:53:34.428Z,45.26
2018-07-31T08:56:03.189Z,44.98
2018-07-31T08:58:31.996Z,45.00
2018-07-31T09:01:00.559Z,45.81
2018-07-31T09:03:29.125Z,46.72
2018-07-31T09:05:57.802Z,47.44
2018-07-31T09:08:26.761Z,47.86
2018-07-31T09:10:55.361Z,48.09
2018-07-31T09:13:23.923Z,48.24
2018-07-31T09:15:52.510Z,48.00
2018-07-31T09:18:21.086Z,48.12
2018-07-31T09:20:49.606Z,47.82
2018-07-31T09:23:18.153Z,47.37
2018-07-31T09:25:47.667Z,47.54
2018-07-31T09:28:17.723Z,48.37
2018-07-31T09:30:51.652Z,48.73
2018-07-31T09:33:20.142Z,48.65
2018-07-31T09:35:48.707Z,48.48
2018-07-31T09:38:17.257Z,48.34
2018-07-31T09:40:45.836Z,47.85
2018-07-31T09:43:14.403Z,47.48
2018-07-31T09:45:42.976Z,47.46
2018-07-31T09:48:11.541Z,47.58
2018-07-31T09:50:40.127Z,47.74
2018-07-31T09:53:08.639Z,48.43
2018-07-31T09:55:37.236Z,49.17
2018-07-31T09:58:05.896Z,50.05
2018-07-31T10:00:39.640Z,50.30
2018-07-31T10:03:08.318Z,49.79
2018-07-31T10:05:37.658Z,49.63
2018-07-31T10:08:06.409Z,49.67
2018-07-31T10:10:35.786Z,50.10
2018-07-31T10:13:05.486Z,50.13
2018-07-31T10:15:34.339Z,49.89
2018-07-31T10:18:03.196Z,49.47
2018-07-31T10:20:33.603Z,49.39
2018-07-31T10:23:02.228Z,50.14
2018-07-31T10:25:31.332Z,49.98
2018-07-31T10:27:59.985Z,49.79
2018-07-31T10:30:30.759Z,49.58
2018-07-31T10:33:00.274Z,49.47
2018-07-31T10:35:30.089Z,49.37
2018-07-31T10:37:59.651Z,50.39
2018-07-31T10:40:30.162Z,51.71
2018-07-31T10:42:59.843Z,53.06
2018-07-31T10:45:28.824Z,54.31
2018-07-31T10:47:57.758Z,55.31
2018-07-31T10:50:26.274Z,54.95
2018-07-31T10:52:54.805Z,54.02
2018-07-31T10:55:23.297Z,53.62
2018-07-31T10:57:51.879Z,52.51
2018-07-31T11:00:20.691Z,51.64
2018-07-31T11:02:49.278Z,51.97
2018-07-31T11:05:18.790Z,51.80
2018-07-31T11:07:47.340Z,51.87
2018-07-31T11:10:17.872Z,52.47
2018-07-31T11:12:46.476Z,52.62
2018-07-31T11:15:15.103Z,52.26
2018-07-31T11:17:43.643Z,51.10
2018-07-31T11:20:12.213Z,50.01
2018-07-31T11:22:40.879Z,49.85
2018-07-31T11:25:09.532Z,50.78
2018-07-31T11:27:38.177Z,51.53
2018-07-31T11:30:07.006Z,51.41
2018-07-31T11:32:35.636Z,50.48
2018-07-31T11:35:04.543Z,49.79
2018-07-31T11:37:33.147Z,49.17
2018-07-31T11:40:01.773Z,48.06
2018-07-31T11:42:30.399Z,46.70
2018-07-31T11:44:58.994Z,45.78
2018-07-31T11:47:27.764Z,45.02
2018-07-31T11:49:56.397Z,44.45
2018-07-31T11:52:25.214Z,43.95
2018-07-31T11:54:53.824Z,43.47
2018-07-31T11:57:22.563Z,43.02
2018-07-31T11:59:51.280Z,42.55
2018-07-31T12:02:19.979Z,42.36
2018-07-31T12:04:48.599Z,42.19
2018-07-31T12:07:17.335Z,42.04
2018-07-31T12:09:46.257Z,41.78
2018-07-31T12:12:15.167Z,41.47
2018-07-31T12:14:43.735Z,41.34
2018-07-31T12:17:12.723Z,41.26
2018-07-31T12:19:41.445Z,41.15
2018-07-31T12:22:10.252Z,41.04
2018-07-31T12:24:44.663Z,40.97
2018-07-31T12:27:13.460Z,40.93
2018-07-31T12:29:42.303Z,40.93
2018-07-31T12:32:11.170Z,40.86
2018-07-31T12:34:39.785Z,40.73
2018-07-31T12:37:08.370Z,40.71
2018-07-31T12:39:36.947Z,40.69
2018-07-31T12:42:05.502Z,40.75
2018-07-31T12:44:34.049Z,40.77
2018-07-31T12:47:03.144Z,40.78
2018-07-31T12:49:31.719Z,40.75
2018-07-31T12:52:01.201Z,40.75
2018-07-31T12:54:30.519Z,40.71
2018-07-31T12:56:59.680Z,40.60
2018-07-31T12:59:28.956Z,40.53
2018-07-31T13:01:57.745Z,40.44
2018-07-31T13:04:26.473Z,40.26
2018-07-31T13:06:55.181Z,40.09
2018-07-31T13:09:23.910Z,40.05
2018-07-31T13:11:52.612Z,39.99
2018-07-31T13:14:21.200Z,39.98
2018-07-31T13:16:49.840Z,39.98
2018-07-31T13:19:18.585Z,40.04
2018-07-31T13:21:47.307Z,40.11
2018-07-31T13:24:17.090Z,40.13
2018-07-31T13:26:45.699Z,40.10
2018-07-31T13:29:14.335Z,40.11
2018-07-31T13:31:42.869Z,40.08
2018-07-31T13:34:11.774Z,40.10
2018-07-31T13:36:40.530Z,40.05
2018-07-31T13:39:10.206Z,40.03
2018-07-31T13:41:39.002Z,40.06
2018-07-31T13:44:07.989Z,40.04
2018-07-31T13:46:36.481Z,40.01
2018-07-31T13:49:05.225Z,40.03
2018-07-31T13:51:33.917Z,40.03
2018-07-31T13:54:02.802Z,40.03
2018-07-31T13:56:31.391Z,39.99
2018-07-31T13:59:00.100Z,39.99
2018-07-31T14:01:28.915Z,39.95
2018-07-31T14:03:57.628Z,39.88
2018-07-31T14:06:26.813Z,39.81
2018-07-31T14:08:55.533Z,39.75
2018-07-31T14:11:24.243Z,39.69
2018-07-31T14:13:52.950Z,39.68
2018-07-31T14:16:21.936Z,39.67
2018-07-31T14:18:50.616Z,39.61
2018-07-31T14:21:19.278Z,39.57
2018-07-31T14:23:47.930Z,39.56
2018-07-31T14:26:16.752Z,39.57
2018-07-31T14:28:45.427Z,39.50
2018-07-31T14:31:14.133Z,39.37
2018-07-31T14:33:43.039Z,39.25
2018-07-31T14:36:11.794Z,39.16
2018-07-31T14:38:40.541Z,39.11
2018-07-31T14:41:09.301Z,39.07
2018-07-31T14:43:37.995Z,39.05
2018-07-31T14:46:06.976Z,39.02
2018-07-31T14:48:35.844Z,39.02
2018-07-31T14:51:04.880Z,39.04
2018-07-31T14:53:33.968Z,39.01
2018-07-31T14:56:03.926Z,38.90
2018-07-31T14:58:32.824Z,38.83
2018-07-31T15:01:01.933Z,38.92
2018-07-31T15:03:31.247Z,38.97
2018-07-31T15:06:00.376Z,39.06
2018-07-31T15:08:30.424Z,39.14
2018-07-31T15:10:59.228Z,39.28
2018-07-31T15:13:28.044Z,39.33
2018-07-31T15:15:57.253Z,39.27
2018-07-31T15:18:26.108Z,39.13
2018-07-31T15:20:55.150Z,38.96
2018-07-31T15:23:24.130Z,38.85
2018-07-31T15:25:53.462Z,38.78
2018-07-31T15:28:22.922Z,38.72
2018-07-31T15:30:51.946Z,38.74
2018-07-31T15:33:21.032Z,38.77
2018-07-31T15:35:51.265Z,38.79
2018-07-31T15:38:20.236Z,38.84
2018-07-31T15:40:50.287Z,38.85
2018-07-31T15:43:19.297Z,38.81
2018-07-31T15:45:48.879Z,38.78
2018-07-31T15:48:17.971Z,38.75
2018-07-31T15:50:47.321Z,38.71
2018-07-31T15:53:16.336Z,38.62
2018-07-31T15:55:46.022Z,38.56
2018-07-31T15:58:15.195Z,38.45
2018-07-31T16:03:22.190Z,38.30
2018-07-31T16:06:03.816Z,38.25
2018-07-31T16:08:45.740Z,38.15
2018-07-31T16:14:18.021Z,37.90
2018-07-31T16:16:47.942Z,37.81
2018-07-31T16:19:25.062Z,37.75
2018-07-31T16:21:54.065Z,37.73
2018-07-31T16:24:29.350Z,37.73
2018-07-31T16:27:05.275Z,37.76
2018-07-31T16:29:40.883Z,37.75
2018-07-31T16:32:11.077Z,37.83
2018-07-31T16:34:46.320Z,37.88
2018-07-31T16:37:15.367Z,37.84
2018-07-31T16:39:47.630Z,37.72
2018-07-31T16:42:16.920Z,37.58
2018-07-31T16:44:49.897Z,37.41
2018-07-31T16:47:30.726Z,37.23
2018-07-31T16:50:08.307Z,37.05
2018-07-31T16:55:13.054Z,36.76
2018-07-31T16:57:41.976Z,36.66
2018-07-31T17:00:19.552Z,36.58
2018-07-31T17:02:48.704Z,36.53
2018-07-31T17:05:25.870Z,36.52
2018-07-31T17:07:55.196Z,36.56
2018-07-31T17:12:58.804Z,36.57
2018-07-31T17:15:27.387Z,36.52
2018-07-31T17:17:56.041Z,36.45
2018-07-31T17:20:24.763Z,36.37
2018-07-31T17:22:53.856Z,36.31
2018-07-31T17:25:22.647Z,36.26
2018-07-31T17:27:51.411Z,36.18
2018-07-31T17:30:20.155Z,36.10
2018-07-31T17:32:48.998Z,36.00
2018-07-31T17:35:19.670Z,35.95
2018-07-31T17:37:48.457Z,35.90
2018-07-31T17:40:23.352Z,35.79
2018-07-31T17:42:52.032Z,35.73
2018-07-31T17:45:20.761Z,35.67
2018-07-31T17:47:49.651Z,35.59
2018-07-31T17:50:18.373Z,35.51
2018-07-31T17:52:47.133Z,35.42
2018-07-31T17:55:15.948Z,35.35
2018-07-31T17:57:44.596Z,35.26
2018-07-31T18:00:13.357Z,35.15
2018-07-31T18:02:42.166Z,35.03
2018-07-31T18:05:10.973Z,34.95
2018-07-31T18:07:39.619Z,34.84
2018-07-31T18:10:08.802Z,34.76
2018-07-31T18:12:38.521Z,34.69
2018-07-31T18:15:07.408Z,34.60
2018-07-31T18:17:36.060Z,34.53
2018-07-31T18:20:04.866Z,34.42
2018-07-31T18:22:33.871Z,34.32
2018-07-31T18:25:02.511Z,34.21
2018-07-31T18:27:31.255Z,34.13
2018-07-31T18:30:00.139Z,34.06
2018-07-31T18:32:28.991Z,33.97
2018-07-31T18:34:58.109Z,33.88
2018-07-31T18:37:26.954Z,33.82
2018-07-31T18:39:56.011Z,33.74
2018-07-31T18:42:24.974Z,33.03
2018-07-31T18:44:54.014Z,33.52
2018-07-31T18:47:22.946Z,33.39
2018-07-31T18:49:51.828Z,33.30
2018-07-31T18:52:20.695Z,33.23
2018-07-31T18:54:49.595Z,33.17
2018-07-31T18:57:18.950Z,33.09
2018-07-31T18:59:47.671Z,33.01
2018-07-31T19:02:16.990Z,32.91
2018-07-31T19:04:46.082Z,32.82
2018-07-31T19:07:15.246Z,32.74
2018-07-31T19:09:44.625Z,32.65
2018-07-31T19:12:22.354Z,32.58
2018-07-31T19:14:51.586Z,32.52
2018-07-31T19:17:20.679Z,32.45
2018-07-31T19:19:49.692Z,32.33
2018-07-31T19:22:18.897Z,32.30
2018-07-31T19:24:47.929Z,32.21
2018-07-31T19:27:16.724Z,32.13
2018-07-31T19:29:45.474Z,32.05
2018-07-31T19:32:14.301Z,31.96
2018-07-31T19:34:43.171Z,31.87
2018-07-31T19:37:12.034Z,31.79
2018-07-31T19:39:40.818Z,31.65
2018-07-31T19:42:09.742Z,31.50
2018-07-31T19:44:38.450Z,31.44
2018-07-31T19:47:07.288Z,31.39
2018-07-31T19:49:35.932Z,31.33
2018-07-31T19:52:06.608Z,31.29
2018-07-31T19:54:39.033Z,31.26
2018-07-31T19:57:07.822Z,31.25
2018-07-31T19:59:36.715Z,30.49
2018-07-31T20:02:05.727Z,31.16
2018-07-31T20:04:34.313Z,31.11
2018-07-31T20:07:03.213Z,31.03
2018-07-31T20:09:31.852Z,30.95
2018-07-31T20:12:00.593Z,30.92
2018-07-31T20:14:29.537Z,30.85
2018-07-31T20:16:58.205Z,30.83
2018-07-31T20:19:27.150Z,30.79
2018-07-31T20:21:56.164Z,30.74
2018-07-31T20:24:25.284Z,30.71
2018-07-31T20:27:01.009Z,30.66
2018-07-31T20:29:29.746Z,30.59
2018-07-31T20:31:58.509Z,30.51
2018-07-31T20:34:27.180Z,30.48
2018-07-31T20:36:56.034Z,30.41
2018-07-31T20:39:24.625Z,30.36
2018-07-31T20:41:53.593Z,30.30
2018-07-31T20:44:22.310Z,30.25
2018-07-31T20:46:50.915Z,30.21
2018-07-31T20:49:19.459Z,30.17
2018-07-31T20:51:48.082Z,30.09
2018-07-31T20:54:16.752Z,30.04
2018-07-31T20:56:45.351Z,29.99
2018-07-31T20:59:14.021Z,29.97
2018-07-31T21:01:42.720Z,29.94
2018-07-31T21:04:11.497Z,29.89
2018-07-31T21:06:40.329Z,29.87
2018-07-31T21:09:11.211Z,29.80
2018-07-31T21:11:39.842Z,29.75
2018-07-31T21:14:08.521Z,29.68
2018-07-31T21:16:37.171Z,29.61
2018-07-31T21:19:05.876Z,29.57
2018-07-31T21:21:34.624Z,29.52
2018-07-31T21:24:03.420Z,29.48
2018-07-31T21:26:32.004Z,29.44
2018-07-31T21:29:00.740Z,29.40
2018-07-31T21:31:29.425Z,29.33
2018-07-31T21:33:58.308Z,29.30
2018-07-31T21:36:27.499Z,29.28
2018-07-31T21:38:56.425Z,29.27
2018-07-31T21:41:25.172Z,29.28
2018-07-31T21:43:54.020Z,29.27
2018-07-31T21:46:23.196Z,29.23
2018-07-31T21:48:52.076Z,29.20
2018-07-31T21:51:20.925Z,29.18
2018-07-31T21:53:49.787Z,29.15
2018-07-31T21:56:18.497Z,29.12
2018-07-31T21:58:47.314Z,29.11
2018-07-31T22:01:16.197Z,29.10
2018-07-31T22:03:44.897Z,29.10
2018-07-31T22:06:13.761Z,29.07
2018-07-31T22:08:42.475Z,29.04
2018-07-31T22:11:11.232Z,29.02
2018-07-31T22:13:39.992Z,29.01
2018-07-31T22:16:08.717Z,28.98
2018-07-31T22:18:37.587Z,28.95
2018-07-31T22:21:06.286Z,28.92
2018-07-31T22:23:35.024Z,28.88
2018-07-31T22:26:03.803Z,28.84
2018-07-31T22:28:32.644Z,28.79
2018-07-31T22:31:01.472Z,28.76
2018-07-31T22:33:30.227Z,28.72
2018-07-31T22:35:59.017Z,28.63
2018-07-31T22:38:27.822Z,28.60
2018-07-31T22:40:56.473Z,28.56
2018-07-31T22:43:25.248Z,28.49
2018-07-31T22:45:54.021Z,28.45
2018-07-31T22:48:22.606Z,28.43
2018-07-31T22:50:51.466Z,28.40
2018-07-31T22:53:20.316Z,28.39
2018-07-31T22:55:49.149Z,28.34
2018-07-31T22:58:20.413Z,28.28
2018-07-31T23:00:49.408Z,28.24
2018-07-31T23:03:18.481Z,28.19
2018-07-31T23:05:47.491Z,28.13
2018-07-31T23:08:16.343Z,28.08
2018-07-31T23:10:45.224Z,28.07
2018-07-31T23:13:14.089Z,28.05
2018-07-31T23:15:43.221Z,27.99
2018-07-31T23:18:11.982Z,27.94
2018-07-31T23:20:40.842Z,27.89
2018-07-31T23:23:09.791Z,27.85
2018-07-31T23:25:39.014Z,27.75
2018-07-31T23:28:08.358Z,27.71
2018-07-31T23:30:38.301Z,27.69
2018-07-31T23:33:08.220Z,27.68
2018-07-31T23:35:37.170Z,27.65
2018-07-31T23:38:06.177Z,27.62
2018-07-31T23:40:35.977Z,27.58
2018-07-31T23:43:04.956Z,27.55
2018-07-31T23:45:34.008Z,27.52
2018-07-31T23:48:04.058Z,27.50
2018-07-31T23:50:34.251Z,27.47
2018-07-31T23:53:03.476Z,27.43
2018-07-31T23:55:32.493Z,27.40
